sensor_id;sensor_type;location;lat;lon;timestamp;temperature;humidity
27368;DHT22;14839;48.106;11.618;2022-10-16T04:02:35;11.40;94.60
27368;DHT22;14839;48.106;11.618;2022-10-16T04:05:01;11.40;94.60
27368;DHT22;14839;48.106;11.618;2022-10-16T04:07:28;11.40;94.60
27368;DHT22;14839;48.106;11.618;2022-10-16T04:09:54;11.50;94.60
27368;DHT22;14839;48.106;11.618;2022-10-16T04:12:20;11.50;94.60
27368;DHT22;14839;48.106;11.618;2022-10-16T04:14:46;11.50;94.60
27368;DHT22;14839;48.106;11.618;2022-10-16T04:17:12;11.50;94.60
27368;DHT22;14839;48.106;11.618;2022-10-16T04:19:38;11.50;94.60
27368;DHT22;14839;48.106;11.618;2022-10-16T04:22:03;11.50;94.60
27368;DHT22;14839;48.106;11.618;2022-10-16T04:24:29;11.60;94.60
27368;DHT22;14839;48.106;11.618;2022-10-16T04:26:55;11.50;94.60
27368;DHT22;14839;48.106;11.618;2022-10-16T04:29:21;11.50;94.60
27368;DHT22;14839;48.106;11.618;2022-10-16T04:31:46;11.60;94.60
27368;DHT22;14839;48.106;11.618;2022-10-16T04:34:12;11.60;94.60
27368;DHT22;14839;48.106;11.618;2022-10-16T04:36:38;11.70;94.60
27368;DHT22;14839;48.106;11.618;2022-10-16T04:39:04;11.70;94.60
27368;DHT22;14839;48.106;11.618;2022-10-16T04:41:29;11.70;94.60
27368;DHT22;14839;48.106;11.618;2022-10-16T04:43:55;11.80;94.60
27368;DHT22;14839;48.106;11.618;2022-10-16T04:46:20;11.90;94.60
27368;DHT22;14839;48.106;11.618;2022-10-16T04:48:46;11.90;94.60
27368;DHT22;14839;48.106;11.618;2022-10-16T04:51:12;12.00;94.60
27368;DHT22;14839;48.106;11.618;2022-10-16T04:53:38;12.00;94.60
27368;DHT22;14839;48.106;11.618;2022-10-16T04:56:03;12.00;94.60
27368;DHT22;14839;48.106;11.618;2022-10-16T04:58:29;12.00;94.60
27368;DHT22;14839;48.106;11.618;2022-10-16T05:00:55;12.00;94.60
27368;DHT22;14839;48.106;11.618;2022-10-16T05:03:21;12.00;94.60
27368;DHT22;14839;48.106;11.618;2022-10-16T05:05:46;12.10;94.60
27368;DHT22;14839;48.106;11.618;2022-10-16T05:08:13;12.10;94.60
27368;DHT22;14839;48.106;11.618;2022-10-16T05:10:41;12.10;94.60
27368;DHT22;14839;48.106;11.618;2022-10-16T05:13:07;12.10;94.60
27368;DHT22;14839;48.106;11.618;2022-10-16T05:15:33;12.20;94.60
27368;DHT22;14839;48.106;11.618;2022-10-16T05:17:58;12.20;94.60
27368;DHT22;14839;48.106;11.618;2022-10-16T05:20:24;12.30;94.60
27368;DHT22;14839;48.106;11.618;2022-10-16T05:22:49;12.30;94.60
27368;DHT22;14839;48.106;11.618;2022-10-16T05:25:15;12.30;94.60
27368;DHT22;14839;48.106;11.618;2022-10-16T05:27:41;12.30;94.60
27368;DHT22;14839;48.106;11.618;2022-10-16T05:30:07;12.30;94.60
27368;DHT22;14839;48.106;11.618;2022-10-16T05:32:33;12.30;94.60
27368;DHT22;14839;48.106;11.618;2022-10-16T05:34:58;12.40;94.60
27368;DHT22;14839;48.106;11.618;2022-10-16T05:37:26;12.40;94.60
27368;DHT22;14839;48.106;11.618;2022-10-16T05:39:52;12.40;94.60
27368;DHT22;14839;48.106;11.618;2022-10-16T05:42:18;12.40;94.60
27368;DHT22;14839;48.106;11.618;2022-10-16T05:44:44;12.40;94.60
27368;DHT22;14839;48.106;11.618;2022-10-16T05:47:09;12.40;94.60
27368;DHT22;14839;48.106;11.618;2022-10-16T05:49:36;12.40;94.60
27368;DHT22;14839;48.106;11.618;2022-10-16T05:52:02;12.40;94.60
27368;DHT22;14839;48.106;11.618;2022-10-16T05:54:27;12.40;94.60
27368;DHT22;14839;48.106;11.618;2022-10-16T05:56:53;12.50;94.60
27368;DHT22;14839;48.106;11.618;2022-10-16T05:59:18;12.50;94.60
27368;DHT22;14839;48.106;11.618;2022-10-16T06:01:44;12.50;94.60
27368;DHT22;14839;48.106;11.618;2022-10-16T06:04:10;12.50;94.60
27368;DHT22;14839;48.106;11.618;2022-10-16T06:06:36;12.60;94.60
27368;DHT22;14839;48.106;11.618;2022-10-16T06:09:02;12.70;94.60
27368;DHT22;14839;48.106;11.618;2022-10-16T06:11:30;12.60;94.60
27368;DHT22;14839;48.106;11.618;2022-10-16T06:13:58;12.60;94.60
27368;DHT22;14839;48.106;11.618;2022-10-16T06:16:25;12.60;94.60
27368;DHT22;14839;48.106;11.618;2022-10-16T06:18:52;12.70;94.60
27368;DHT22;14839;48.106;11.618;2022-10-16T06:21:20;12.80;94.60
27368;DHT22;14839;48.106;11.618;2022-10-16T06:23:45;12.90;94.60
27368;DHT22;14839;48.106;11.618;2022-10-16T06:26:17;13.00;94.60
27368;DHT22;14839;48.106;11.618;2022-10-16T06:28:43;13.10;94.60
27368;DHT22;14839;48.106;11.618;2022-10-16T06:31:11;13.10;94.60
27368;DHT22;14839;48.106;11.618;2022-10-16T06:33:37;13.20;94.60
27368;DHT22;14839;48.106;11.618;2022-10-16T06:36:14;13.30;94.60
27368;DHT22;14839;48.106;11.618;2022-10-16T06:38:41;13.40;94.60
27368;DHT22;14839;48.106;11.618;2022-10-16T06:41:08;13.60;94.60
27368;DHT22;14839;48.106;11.618;2022-10-16T06:43:35;13.70;94.60
27368;DHT22;14839;48.106;11.618;2022-10-16T06:46:01;13.70;94.60
27368;DHT22;14839;48.106;11.618;2022-10-16T06:48:28;13.80;94.60
27368;DHT22;14839;48.106;11.618;2022-10-16T06:51:05;13.80;94.60
27368;DHT22;14839;48.106;11.618;2022-10-16T06:53:33;13.80;94.60
27368;DHT22;14839;48.106;11.618;2022-10-16T06:56:14;13.90;94.60
27368;DHT22;14839;48.106;11.618;2022-10-16T06:58:41;14.00;94.60
27368;DHT22;14839;48.106;11.618;2022-10-16T07:01:08;14.00;94.60
27368;DHT22;14839;48.106;11.618;2022-10-16T07:03:36;14.00;94.60
27368;DHT22;14839;48.106;11.618;2022-10-16T07:06:04;14.00;94.60
27368;DHT22;14839;48.106;11.618;2022-10-16T07:08:38;14.00;94.60
27368;DHT22;14839;48.106;11.618;2022-10-16T07:11:07;14.20;94.60
27368;DHT22;14839;48.106;11.618;2022-10-16T07:13:34;14.30;94.60
27368;DHT22;14839;48.106;11.618;2022-10-16T07:16:17;14.50;94.60
27368;DHT22;14839;48.106;11.618;2022-10-16T07:18:44;14.70;94.60
27368;DHT22;14839;48.106;11.618;2022-10-16T07:21:17;15.20;94.60
27368;DHT22;14839;48.106;11.618;2022-10-16T07:23:43;15.90;94.60
27368;DHT22;14839;48.106;11.618;2022-10-16T07:26:09;16.70;94.60
27368;DHT22;14839;48.106;11.618;2022-10-16T07:28:35;17.40;94.60
27368;DHT22;14839;48.106;11.618;2022-10-16T07:31:03;18.00;94.60
27368;DHT22;14839;48.106;11.618;2022-10-16T07:33:30;18.40;94.60
27368;DHT22;14839;48.106;11.618;2022-10-16T07:35:56;18.80;93.90
27368;DHT22;14839;48.106;11.618;2022-10-16T07:38:23;19.10;93.00
27368;DHT22;14839;48.106;11.618;2022-10-16T07:41:02;19.10;91.80
27368;DHT22;14839;48.106;11.618;2022-10-16T07:43:29;19.20;93.80
27368;DHT22;14839;48.106;11.618;2022-10-16T07:45:54;19.00;93.80
27368;DHT22;14839;48.106;11.618;2022-10-16T07:48:22;19.00;94.10
27368;DHT22;14839;48.106;11.618;2022-10-16T07:50:48;19.20;93.00
27368;DHT22;14839;48.106;11.618;2022-10-16T07:53:14;19.70;92.20
27368;DHT22;14839;48.106;11.618;2022-10-16T07:55:40;20.00;92.10
27368;DHT22;14839;48.106;11.618;2022-10-16T07:58:06;20.20;91.30
27368;DHT22;14839;48.106;11.618;2022-10-16T08:00:32;20.60;92.30
27368;DHT22;14839;48.106;11.618;2022-10-16T08:02:58;20.90;89.30
27368;DHT22;14839;48.106;11.618;2022-10-16T08:05:32;20.90;88.10
27368;DHT22;14839;48.106;11.618;2022-10-16T08:07:58;20.80;88.40
27368;DHT22;14839;48.106;11.618;2022-10-16T08:10:26;20.70;90.40
27368;DHT22;14839;48.106;11.618;2022-10-16T08:12:52;20.80;90.20
27368;DHT22;14839;48.106;11.618;2022-10-16T08:15:18;21.00;90.60
27368;DHT22;14839;48.106;11.618;2022-10-16T08:17:44;21.70;88.30
27368;DHT22;14839;48.106;11.618;2022-10-16T08:20:11;22.00;84.10
27368;DHT22;14839;48.106;11.618;2022-10-16T08:22:36;22.20;85.10
27368;DHT22;14839;48.106;11.618;2022-10-16T08:25:02;22.50;85.40
27368;DHT22;14839;48.106;11.618;2022-10-16T08:27:32;22.60;84.40
27368;DHT22;14839;48.106;11.618;2022-10-16T08:29:58;22.80;81.70
27368;DHT22;14839;48.106;11.618;2022-10-16T08:32:24;23.00;80.30
27368;DHT22;14839;48.106;11.618;2022-10-16T08:34:49;23.10;78.50
27368;DHT22;14839;48.106;11.618;2022-10-16T08:37:15;23.20;78.40
27368;DHT22;14839;48.106;11.618;2022-10-16T08:39:41;23.10;75.80
27368;DHT22;14839;48.106;11.618;2022-10-16T08:50:38;23.40;75.10
27368;DHT22;14839;48.106;11.618;2022-10-16T08:53:05;23.70;79.40
27368;DHT22;14839;48.106;11.618;2022-10-16T08:55:42;23.80;74.50
27368;DHT22;14839;48.106;11.618;2022-10-16T08:58:28;23.90;75.10
27368;DHT22;14839;48.106;11.618;2022-10-16T09:00:56;24.30;74.30
27368;DHT22;14839;48.106;11.618;2022-10-16T09:08:58;24.30;74.50
27368;DHT22;14839;48.106;11.618;2022-10-16T09:11:43;24.20;71.90
27368;DHT22;14839;48.106;11.618;2022-10-16T09:20:45;24.90;73.70
27368;DHT22;14839;48.106;11.618;2022-10-16T09:23:19;25.40;72.20
27368;DHT22;14839;48.106;11.618;2022-10-16T09:25:49;25.00;69.40
27368;DHT22;14839;48.106;11.618;2022-10-16T09:28:17;24.90;71.30
27368;DHT22;14839;48.106;11.618;2022-10-16T09:30:43;24.80;71.50
27368;DHT22;14839;48.106;11.618;2022-10-16T09:33:11;25.20;73.10
27368;DHT22;14839;48.106;11.618;2022-10-16T09:35:48;25.20;69.10
27368;DHT22;14839;48.106;11.618;2022-10-16T09:38:41;25.50;68.30
27368;DHT22;14839;48.106;11.618;2022-10-16T09:41:21;25.10;70.40
27368;DHT22;14839;48.106;11.618;2022-10-16T09:43:54;25.10;70.60
27368;DHT22;14839;48.106;11.618;2022-10-16T09:46:30;25.20;71.30
27368;DHT22;14839;48.106;11.618;2022-10-16T09:49:03;25.30;69.10
27368;DHT22;14839;48.106;11.618;2022-10-16T09:51:35;25.30;70.40
27368;DHT22;14839;48.106;11.618;2022-10-16T09:56:35;25.40;68.00
27368;DHT22;14839;48.106;11.618;2022-10-16T09:59:13;25.40;66.80
27368;DHT22;14839;48.106;11.618;2022-10-16T10:04:13;25.20;69.70
27368;DHT22;14839;48.106;11.618;2022-10-16T10:06:45;25.50;65.90
27368;DHT22;14839;48.106;11.618;2022-10-16T10:09:27;25.40;65.90
27368;DHT22;14839;48.106;11.618;2022-10-16T10:12:05;25.70;65.00
27368;DHT22;14839;48.106;11.618;2022-10-16T10:14:39;25.70;66.40
27368;DHT22;14839;48.106;11.618;2022-10-16T10:19:49;25.80;66.20
27368;DHT22;14839;48.106;11.618;2022-10-16T10:22:43;26.10;64.00
27368;DHT22;14839;48.106;11.618;2022-10-16T10:35:45;25.10;67.10
27368;DHT22;14839;48.106;11.618;2022-10-16T10:40:56;25.40;66.20
27368;DHT22;14839;48.106;11.618;2022-10-16T10:46:41;25.20;67.40
27368;DHT22;14839;48.106;11.618;2022-10-16T10:49:16;25.20;67.40
27368;DHT22;14839;48.106;11.618;2022-10-16T10:54:35;25.70;63.80
27368;DHT22;14839;48.106;11.618;2022-10-16T10:57:07;25.70;63.70
27368;DHT22;14839;48.106;11.618;2022-10-16T11:00:47;25.70;66.50
27368;DHT22;14839;48.106;11.618;2022-10-16T11:05:40;25.90;64.00
27368;DHT22;14839;48.106;11.618;2022-10-16T11:10:57;25.50;63.70
27368;DHT22;14839;48.106;11.618;2022-10-16T11:13:58;25.60;63.20
27368;DHT22;14839;48.106;11.618;2022-10-16T11:19:42;25.90;62.60
27368;DHT22;14839;48.106;11.618;2022-10-16T11:24:44;25.70;57.60
27368;DHT22;14839;48.106;11.618;2022-10-16T11:27:17;25.90;60.50
27368;DHT22;14839;48.106;11.618;2022-10-16T11:29:56;26.00;57.30
27368;DHT22;14839;48.106;11.618;2022-10-16T11:32:31;26.10;57.30
27368;DHT22;14839;48.106;11.618;2022-10-16T11:35:10;26.00;56.00
27368;DHT22;14839;48.106;11.618;2022-10-16T11:37:42;26.00;58.10
27368;DHT22;14839;48.106;11.618;2022-10-16T11:40:31;26.00;56.30
27368;DHT22;14839;48.106;11.618;2022-10-16T11:43:22;25.90;56.90
27368;DHT22;14839;48.106;11.618;2022-10-16T11:45:52;26.00;58.20
27368;DHT22;14839;48.106;11.618;2022-10-16T11:48:35;25.70;59.10
27368;DHT22;14839;48.106;11.618;2022-10-16T11:51:21;25.60;59.40
27368;DHT22;14839;48.106;11.618;2022-10-16T11:54:02;25.60;58.80
27368;DHT22;14839;48.106;11.618;2022-10-16T11:56:32;25.50;58.90
27368;DHT22;14839;48.106;11.618;2022-10-16T11:59:50;25.50;60.50
27368;DHT22;14839;48.106;11.618;2022-10-16T12:04:48;25.60;56.30
27368;DHT22;14839;48.106;11.618;2022-10-16T12:07:24;25.60;56.30
27368;DHT22;14839;48.106;11.618;2022-10-16T12:09:50;25.60;55.00
27368;DHT22;14839;48.106;11.618;2022-10-16T12:12:37;25.30;56.90
27368;DHT22;14839;48.106;11.618;2022-10-16T12:15:20;25.30;56.30
27368;DHT22;14839;48.106;11.618;2022-10-16T12:17:46;25.20;56.30
27368;DHT22;14839;48.106;11.618;2022-10-16T12:22:49;25.00;56.10
27368;DHT22;14839;48.106;11.618;2022-10-16T12:25:30;25.00;57.30
27368;DHT22;14839;48.106;11.618;2022-10-16T12:28:04;25.00;56.70
27368;DHT22;14839;48.106;11.618;2022-10-16T12:30:35;25.00;56.90
27368;DHT22;14839;48.106;11.618;2022-10-16T12:33:06;25.00;56.40
27368;DHT22;14839;48.106;11.618;2022-10-16T12:35:44;25.00;57.30
27368;DHT22;14839;48.106;11.618;2022-10-16T12:38:25;24.90;57.30
27368;DHT22;14839;48.106;11.618;2022-10-16T12:41:03;24.90;56.90
27368;DHT22;14839;48.106;11.618;2022-10-16T12:43:42;24.80;57.60
27368;DHT22;14839;48.106;11.618;2022-10-16T12:48:35;24.90;58.20
27368;DHT22;14839;48.106;11.618;2022-10-16T12:53:45;24.90;57.60
27368;DHT22;14839;48.106;11.618;2022-10-16T12:56:25;24.80;57.60
27368;DHT22;14839;48.106;11.618;2022-10-16T13:07:19;24.50;58.90
27368;DHT22;14839;48.106;11.618;2022-10-16T13:09:55;24.50;59.10
27368;DHT22;14839;48.106;11.618;2022-10-16T13:12:37;24.50;58.80
27368;DHT22;14839;48.106;11.618;2022-10-16T13:15:29;24.40;56.60
27368;DHT22;14839;48.106;11.618;2022-10-16T13:26:37;24.20;58.10
27368;DHT22;14839;48.106;11.618;2022-10-16T13:29:07;24.20;58.50
27368;DHT22;14839;48.106;11.618;2022-10-16T13:31:32;24.20;59.80
27368;DHT22;14839;48.106;11.618;2022-10-16T13:34:00;24.30;60.10
27368;DHT22;14839;48.106;11.618;2022-10-16T13:36:34;24.30;58.40
27368;DHT22;14839;48.106;11.618;2022-10-16T13:41:32;24.20;58.90
27368;DHT22;14839;48.106;11.618;2022-10-16T13:43:58;24.30;58.50
27368;DHT22;14839;48.106;11.618;2022-10-16T13:46:25;24.30;59.20
27368;DHT22;14839;48.106;11.618;2022-10-16T13:48:58;24.30;60.10
27368;DHT22;14839;48.106;11.618;2022-10-16T13:51:24;24.40;58.50
27368;DHT22;14839;48.106;11.618;2022-10-16T13:53:50;24.40;58.90
27368;DHT22;14839;48.106;11.618;2022-10-16T13:56:20;24.30;58.10
27368;DHT22;14839;48.106;11.618;2022-10-16T13:58:58;24.20;59.40
27368;DHT22;14839;48.106;11.618;2022-10-16T14:01:28;24.30;58.90
27368;DHT22;14839;48.106;11.618;2022-10-16T14:04:02;24.20;62.50
27368;DHT22;14839;48.106;11.618;2022-10-16T14:06:29;24.10;58.10
27368;DHT22;14839;48.106;11.618;2022-10-16T14:09:02;24.10;58.40
27368;DHT22;14839;48.106;11.618;2022-10-16T14:11:30;24.10;58.80
27368;DHT22;14839;48.106;11.618;2022-10-16T14:13:56;24.00;58.70
27368;DHT22;14839;48.106;11.618;2022-10-16T14:16:27;24.10;59.80
27368;DHT22;14839;48.106;11.618;2022-10-16T14:19:03;24.10;60.00
27368;DHT22;14839;48.106;11.618;2022-10-16T14:21:30;24.10;59.70
27368;DHT22;14839;48.106;11.618;2022-10-16T14:23:57;24.10;63.50
27368;DHT22;14839;48.106;11.618;2022-10-16T14:26:27;24.20;59.50
27368;DHT22;14839;48.106;11.618;2022-10-16T14:29:17;24.10;59.10
27368;DHT22;14839;48.106;11.618;2022-10-16T14:32:03;24.00;59.70
27368;DHT22;14839;48.106;11.618;2022-10-16T14:34:35;24.00;64.30
27368;DHT22;14839;48.106;11.618;2022-10-16T14:39:33;23.90;60.40
27368;DHT22;14839;48.106;11.618;2022-10-16T14:41:59;23.80;63.70
27368;DHT22;14839;48.106;11.618;2022-10-16T14:44:31;23.70;59.70
27368;DHT22;14839;48.106;11.618;2022-10-16T14:46:58;23.70;60.50
27368;DHT22;14839;48.106;11.618;2022-10-16T14:49:32;23.70;59.70
27368;DHT22;14839;48.106;11.618;2022-10-16T14:51:58;23.70;59.20
27368;DHT22;14839;48.106;11.618;2022-10-16T14:54:23;23.70;59.10
27368;DHT22;14839;48.106;11.618;2022-10-16T14:56:51;23.70;59.50
27368;DHT22;14839;48.106;11.618;2022-10-16T15:01:54;23.30;63.70
27368;DHT22;14839;48.106;11.618;2022-10-16T15:04:20;23.10;64.90
27368;DHT22;14839;48.106;11.618;2022-10-16T15:06:46;22.90;65.80
27368;DHT22;14839;48.106;11.618;2022-10-16T15:09:12;22.90;62.20
27368;DHT22;14839;48.106;11.618;2022-10-16T15:11:38;22.70;64.40
27368;DHT22;14839;48.106;11.618;2022-10-16T15:14:04;22.60;65.00
27368;DHT22;14839;48.106;11.618;2022-10-16T15:16:30;22.30;69.80
27368;DHT22;14839;48.106;11.618;2022-10-16T15:18:56;22.10;71.20
27368;DHT22;14839;48.106;11.618;2022-10-16T15:21:28;22.10;71.90
27368;DHT22;14839;48.106;11.618;2022-10-16T15:23:55;22.10;69.70
27368;DHT22;14839;48.106;11.618;2022-10-16T15:26:25;22.10;72.10
27368;DHT22;14839;48.106;11.618;2022-10-16T15:28:52;22.00;73.30
27368;DHT22;14839;48.106;11.618;2022-10-16T15:31:18;21.90;72.80
27368;DHT22;14839;48.106;11.618;2022-10-16T15:33:44;21.70;72.80
27368;DHT22;14839;48.106;11.618;2022-10-16T15:36:13;21.60;76.40
27368;DHT22;14839;48.106;11.618;2022-10-16T15:38:39;21.40;76.70
27368;DHT22;14839;48.106;11.618;2022-10-16T15:41:05;21.00;77.30
27368;DHT22;14839;48.106;11.618;2022-10-16T15:43:30;20.80;79.00
27368;DHT22;14839;48.106;11.618;2022-10-16T15:46:01;20.70;79.30
27368;DHT22;14839;48.106;11.618;2022-10-16T15:48:28;20.70;79.90
27368;DHT22;14839;48.106;11.618;2022-10-16T15:50:54;20.60;81.40
27368;DHT22;14839;48.106;11.618;2022-10-16T15:53:20;20.40;81.70
27368;DHT22;14839;48.106;11.618;2022-10-16T15:55:45;20.40;82.00
27368;DHT22;14839;48.106;11.618;2022-10-16T15:58:11;20.20;83.20
27368;DHT22;14839;48.106;11.618;2022-10-16T16:00:37;20.10;83.50
27368;DHT22;14839;48.106;11.618;2022-10-16T16:03:04;20.10;83.60
27368;DHT22;14839;48.106;11.618;2022-10-16T16:05:29;20.00;84.40
27368;DHT22;14839;48.106;11.618;2022-10-16T16:07:56;19.80;85.30
27368;DHT22;14839;48.106;11.618;2022-10-16T16:10:22;19.80;85.30
27368;DHT22;14839;48.106;11.618;2022-10-16T16:12:48;19.70;85.10
27368;DHT22;14839;48.106;11.618;2022-10-16T16:15:18;19.70;86.30
27368;DHT22;14839;48.106;11.618;2022-10-16T16:17:44;19.60;88.70
27368;DHT22;14839;48.106;11.618;2022-10-16T16:20:11;19.50;89.60
27368;DHT22;14839;48.106;11.618;2022-10-16T16:22:37;19.40;90.80
27368;DHT22;14839;48.106;11.618;2022-10-16T16:25:03;19.20;90.60
27368;DHT22;14839;48.106;11.618;2022-10-16T16:27:29;19.00;90.40
27368;DHT22;14839;48.106;11.618;2022-10-16T16:30:02;18.90;90.90
27368;DHT22;14839;48.106;11.618;2022-10-16T16:32:29;18.80;90.90
27368;DHT22;14839;48.106;11.618;2022-10-16T16:34:54;18.60;91.10
27368;DHT22;14839;48.106;11.618;2022-10-16T16:37:20;18.60;91.10
27368;DHT22;14839;48.106;11.618;2022-10-16T16:39:46;18.70;91.20
27368;DHT22;14839;48.106;11.618;2022-10-16T16:42:12;18.70;90.90
27368;DHT22;14839;48.106;11.618;2022-10-16T16:44:38;18.80;92.40
27368;DHT22;14839;48.106;11.618;2022-10-16T16:47:05;18.70;92.30
27368;DHT22;14839;48.106;11.618;2022-10-16T16:49:31;18.50;92.30
27368;DHT22;14839;48.106;11.618;2022-10-16T16:51:57;18.40;92.70
27368;DHT22;14839;48.106;11.618;2022-10-16T16:54:23;18.40;93.10
27368;DHT22;14839;48.106;11.618;2022-10-16T16:56:48;18.40;92.80
27368;DHT22;14839;48.106;11.618;2022-10-16T16:59:17;18.40;92.50
27368;DHT22;14839;48.106;11.618;2022-10-16T17:01:44;18.50;92.40
27368;DHT22;14839;48.106;11.618;2022-10-16T17:04:10;18.40;93.60
27368;DHT22;14839;48.106;11.618;2022-10-16T17:06:36;18.30;94.20
27368;DHT22;14839;48.106;11.618;2022-10-16T17:09:03;18.20;94.40
27368;DHT22;14839;48.106;11.618;2022-10-16T17:11:30;18.00;94.60
27368;DHT22;14839;48.106;11.618;2022-10-16T17:13:58;17.90;94.60
27368;DHT22;14839;48.106;11.618;2022-10-16T17:16:31;17.70;94.60
27368;DHT22;14839;48.106;11.618;2022-10-16T17:19:06;17.70;94.60
27368;DHT22;14839;48.106;11.618;2022-10-16T17:21:32;17.60;94.60
27368;DHT22;14839;48.106;11.618;2022-10-16T17:23:59;17.50;94.60
27368;DHT22;14839;48.106;11.618;2022-10-16T17:26:26;17.30;94.60
27368;DHT22;14839;48.106;11.618;2022-10-16T17:28:53;17.20;94.60
27368;DHT22;14839;48.106;11.618;2022-10-16T17:31:25;17.10;94.60
27368;DHT22;14839;48.106;11.618;2022-10-16T17:33:51;16.90;94.60
27368;DHT22;14839;48.106;11.618;2022-10-16T17:36:18;16.90;94.60
27368;DHT22;14839;48.106;11.618;2022-10-16T17:38:45;16.80;94.60
27368;DHT22;14839;48.106;11.618;2022-10-16T17:41:19;16.80;94.60
27368;DHT22;14839;48.106;11.618;2022-10-16T17:43:46;16.70;94.60
27368;DHT22;14839;48.106;11.618;2022-10-16T17:46:14;16.60;94.60
27368;DHT22;14839;48.106;11.618;2022-10-16T17:48:42;16.50;94.60
27368;DHT22;14839;48.106;11.618;2022-10-16T17:51:10;16.40;94.60
27368;DHT22;14839;48.106;11.618;2022-10-16T17:53:37;16.40;94.60
27368;DHT22;14839;48.106;11.618;2022-10-16T17:56:09;16.30;94.60
27368;DHT22;14839;48.106;11.618;2022-10-16T17:58:35;16.20;94.60
27368;DHT22;14839;48.106;11.618;2022-10-16T18:01:02;16.20;94.60
27368;DHT22;14839;48.106;11.618;2022-10-16T18:03:35;16.10;94.60
27368;DHT22;14839;48.106;11.618;2022-10-16T18:06:01;16.10;94.60
27368;DHT22;14839;48.106;11.618;2022-10-16T18:08:29;16.00;94.60
27368;DHT22;14839;48.106;11.618;2022-10-16T18:10:55;15.90;94.60
27368;DHT22;14839;48.106;11.618;2022-10-16T18:13:21;15.90;94.60
27368;DHT22;14839;48.106;11.618;2022-10-16T18:15:46;15.80;94.60
27368;DHT22;14839;48.106;11.618;2022-10-16T18:18:12;15.80;94.60
27368;DHT22;14839;48.106;11.618;2022-10-16T18:20:38;15.70;94.60
27368;DHT22;14839;48.106;11.618;2022-10-16T18:23:04;15.60;94.60
27368;DHT22;14839;48.106;11.618;2022-10-16T18:25:30;15.60;94.60
27368;DHT22;14839;48.106;11.618;2022-10-16T18:27:56;15.60;94.60
27368;DHT22;14839;48.106;11.618;2022-10-16T18:30:22;15.60;94.60
27368;DHT22;14839;48.106;11.618;2022-10-16T18:32:47;15.50;94.60
27368;DHT22;14839;48.106;11.618;2022-10-16T18:35:13;15.50;94.60
27368;DHT22;14839;48.106;11.618;2022-10-16T18:37:39;15.50;94.60
27368;DHT22;14839;48.106;11.618;2022-10-16T18:40:05;15.40;94.60
27368;DHT22;14839;48.106;11.618;2022-10-16T18:42:31;15.30;94.60
27368;DHT22;14839;48.106;11.618;2022-10-16T18:44:56;15.30;94.60
27368;DHT22;14839;48.106;11.618;2022-10-16T18:47:22;15.20;94.60
27368;DHT22;14839;48.106;11.618;2022-10-16T18:49:48;15.20;94.60
27368;DHT22;14839;48.106;11.618;2022-10-16T18:52:14;15.20;94.60
27368;DHT22;14839;48.106;11.618;2022-10-16T18:54:40;15.10;94.60
27368;DHT22;14839;48.106;11.618;2022-10-16T18:57:06;15.10;94.60
27368;DHT22;14839;48.106;11.618;2022-10-16T18:59:32;15.00;94.60
27368;DHT22;14839;48.106;11.618;2022-10-16T19:01:57;15.00;94.60
27368;DHT22;14839;48.106;11.618;2022-10-16T19:04:23;14.90;94.60
27368;DHT22;14839;48.106;11.618;2022-10-16T19:06:51;14.90;94.60
27368;DHT22;14839;48.106;11.618;2022-10-16T19:09:18;14.80;94.60
27368;DHT22;14839;48.106;11.618;2022-10-16T19:11:45;14.70;94.60
27368;DHT22;14839;48.106;11.618;2022-10-16T19:14:12;14.70;94.60
27368;DHT22;14839;48.106;11.618;2022-10-16T19:16:38;14.60;94.60
27368;DHT22;14839;48.106;11.618;2022-10-16T19:19:06;14.60;94.60
27368;DHT22;14839;48.106;11.618;2022-10-16T19:21:35;14.50;94.60
27368;DHT22;14839;48.106;11.618;2022-10-16T19:24:02;14.50;94.60
27368;DHT22;14839;48.106;11.618;2022-10-16T19:26:29;14.50;94.60
27368;DHT22;14839;48.106;11.618;2022-10-16T19:28:57;14.40;94.60
27368;DHT22;14839;48.106;11.618;2022-10-16T19:31:25;14.40;94.60
27368;DHT22;14839;48.106;11.618;2022-10-16T19:33:52;14.40;94.60
27368;DHT22;14839;48.106;11.618;2022-10-16T19:36:29;14.30;94.60
27368;DHT22;14839;48.106;11.618;2022-10-16T19:38:58;14.20;94.60
27368;DHT22;14839;48.106;11.618;2022-10-16T19:41:37;14.20;94.60
27368;DHT22;14839;48.106;11.618;2022-10-16T19:44:06;14.10;94.60
27368;DHT22;14839;48.106;11.618;2022-10-16T19:46:32;14.10;94.60
27368;DHT22;14839;48.106;11.618;2022-10-16T19:49:04;14.00;94.60
27368;DHT22;14839;48.106;11.618;2022-10-16T19:51:30;14.00;94.60
27368;DHT22;14839;48.106;11.618;2022-10-16T19:54:09;14.00;94.60
27368;DHT22;14839;48.106;11.618;2022-10-16T19:56:36;13.90;94.60
27368;DHT22;14839;48.106;11.618;2022-10-16T19:59:03;13.90;94.60
27368;DHT22;14839;48.106;11.618;2022-10-16T20:01:30;13.90;94.60
27368;DHT22;14839;48.106;11.618;2022-10-16T20:03:57;13.80;94.60
27368;DHT22;14839;48.106;11.618;2022-10-16T20:06:23;13.80;94.60
27368;DHT22;14839;48.106;11.618;2022-10-16T20:08:51;13.80;94.60
27368;DHT22;14839;48.106;11.618;2022-10-16T20:11:22;13.80;94.60
27368;DHT22;14839;48.106;11.618;2022-10-16T20:13:49;13.80;94.60
27368;DHT22;14839;48.106;11.618;2022-10-16T20:16:15;13.80;94.60
27368;DHT22;14839;48.106;11.618;2022-10-16T20:18:44;13.70;94.60
27368;DHT22;14839;48.106;11.618;2022-10-16T20:21:13;13.70;94.60
27368;DHT22;14839;48.106;11.618;2022-10-16T20:23:39;13.70;94.60
27368;DHT22;14839;48.106;11.618;2022-10-16T20:26:07;13.70;94.60
27368;DHT22;14839;48.106;11.618;2022-10-16T20:28:37;13.60;94.60
27368;DHT22;14839;48.106;11.618;2022-10-16T20:31:08;13.60;94.60
27368;DHT22;14839;48.106;11.618;2022-10-16T20:33:34;13.60;94.60
27368;DHT22;14839;48.106;11.618;2022-10-16T20:36:00;13.60;94.60
27368;DHT22;14839;48.106;11.618;2022-10-16T20:38:26;13.50;94.60
27368;DHT22;14839;48.106;11.618;2022-10-16T20:40:51;13.50;94.60
27368;DHT22;14839;48.106;11.618;2022-10-16T20:43:18;13.40;94.60
27368;DHT22;14839;48.106;11.618;2022-10-16T20:45:44;13.30;94.60
27368;DHT22;14839;48.106;11.618;2022-10-16T20:48:11;13.30;94.60
27368;DHT22;14839;48.106;11.618;2022-10-16T20:50:38;13.20;94.60
27368;DHT22;14839;48.106;11.618;2022-10-16T20:53:05;13.20;94.60
27368;DHT22;14839;48.106;11.618;2022-10-16T20:55:34;13.20;94.60
27368;DHT22;14839;48.106;11.618;2022-10-16T20:58:01;13.10;94.60
27368;DHT22;14839;48.106;11.618;2022-10-16T21:00:27;13.10;94.60
27368;DHT22;14839;48.106;11.618;2022-10-16T21:02:52;13.10;94.60